createdAt,value
2017-06-04T00:00:37.951Z,22.20
2017-06-04T00:03:07.403Z,22.50
2017-06-04T00:05:37.249Z,22.50
2017-06-04T00:08:06.672Z,22.50
2017-06-04T00:10:36.358Z,22.10
2017-06-04T00:13:05.749Z,22.10
2017-06-04T00:15:35.331Z,22.00
2017-06-04T00:18:05.029Z,22.00
2017-06-04T00:20:34.459Z,22.10
2017-06-04T00:23:04.181Z,21.40
2017-06-04T00:25:33.607Z,21.40
2017-06-04T00:28:03.298Z,21.40
2017-06-04T00:30:32.690Z,21.50
2017-06-04T00:33:02.232Z,21.50
2017-06-04T00:35:31.763Z,21.40
2017-06-04T00:38:01.468Z,21.50
2017-06-04T00:40:31.815Z,21.50
2017-06-04T00:43:01.747Z,21.50
2017-06-04T00:45:31.272Z,21.40
2017-06-04T00:48:00.736Z,21.30
2017-06-04T00:50:30.524Z,21.20
2017-06-04T00:53:00.328Z,21.20
2017-06-04T00:55:30.019Z,21.00
2017-06-04T00:58:00.302Z,20.90
2017-06-04T01:00:29.979Z,20.90
2017-06-04T01:02:59.624Z,20.80
2017-06-04T01:05:29.155Z,20.60
2017-06-04T01:07:58.861Z,20.40
2017-06-04T01:10:27.829Z,20.50
2017-06-04T01:12:57.494Z,20.30
2017-06-04T01:15:26.861Z,20.40
2017-06-04T01:17:56.203Z,20.40
2017-06-04T01:20:25.570Z,20.50
2017-06-04T01:22:55.187Z,20.60
2017-06-04T01:25:24.589Z,20.70
2017-06-04T01:27:54.101Z,20.70
2017-06-04T01:30:23.594Z,20.80
2017-06-04T01:32:53.059Z,20.70
2017-06-04T01:35:22.456Z,20.70
2017-06-04T01:37:52.047Z,20.60
2017-06-04T01:40:22.574Z,20.50
2017-06-04T01:42:52.544Z,20.60
2017-06-04T01:45:21.943Z,20.60
2017-06-04T01:47:51.640Z,20.50
2017-06-04T01:50:21.166Z,20.50
2017-06-04T01:52:50.487Z,20.30
2017-06-04T01:55:20.127Z,20.10
2017-06-04T01:57:49.747Z,20.10
2017-06-04T02:00:20.309Z,20.10
2017-06-04T02:02:49.807Z,20.10
2017-06-04T02:05:19.270Z,20.10
2017-06-04T02:07:49.749Z,20.10
2017-06-04T02:10:19.303Z,20.10
2017-06-04T02:12:48.776Z,20.20
2017-06-04T02:15:18.030Z,20.10
2017-06-04T02:17:47.541Z,20.00
2017-06-04T02:20:16.998Z,20.10
2017-06-04T02:22:46.395Z,20.20
2017-06-04T02:25:16.117Z,20.30
2017-06-04T02:27:45.591Z,20.20
2017-06-04T02:30:14.941Z,20.00
2017-06-04T02:32:44.402Z,20.10
2017-06-04T02:35:13.797Z,20.10
2017-06-04T02:37:43.666Z,20.20
2017-06-04T02:40:13.543Z,20.00
2017-06-04T02:42:42.919Z,20.00
2017-06-04T02:45:12.139Z,19.80
2017-06-04T02:47:41.353Z,19.80
2017-06-04T02:50:10.813Z,19.80
2017-06-04T02:52:40.279Z,19.80
2017-06-04T02:55:10.460Z,19.60
2017-06-04T02:57:40.132Z,19.60
2017-06-04T03:00:09.705Z,19.70
2017-06-04T03:02:40.474Z,19.60
2017-06-04T03:05:09.965Z,19.60
2017-06-04T03:07:39.488Z,19.50
2017-06-04T03:10:09.160Z,19.60
2017-06-04T03:12:38.491Z,19.60
2017-06-04T03:15:07.772Z,19.50
2017-06-04T03:17:37.293Z,19.40
2017-06-04T03:20:07.747Z,19.30
2017-06-04T03:22:37.134Z,19.30
2017-06-04T03:25:06.273Z,19.20
2017-06-04T03:27:35.822Z,19.20
2017-06-04T03:30:05.247Z,19.10
2017-06-04T03:32:34.601Z,19.20
2017-06-04T03:35:04.145Z,19.20
2017-06-04T03:37:33.373Z,19.20
2017-06-04T03:40:02.735Z,19.00
2017-06-04T03:42:32.111Z,19.00
2017-06-04T03:45:01.513Z,18.90
2017-06-04T03:47:31.831Z,18.80
2017-06-04T03:50:01.665Z,18.80
2017-06-04T03:52:31.185Z,18.90
2017-06-04T03:55:01.617Z,18.90
2017-06-04T03:57:30.873Z,18.80
2017-06-04T04:00:01.410Z,18.70
2017-06-04T04:02:31.275Z,18.40
2017-06-04T04:05:01.542Z,18.30
2017-06-04T04:07:30.961Z,18.30
2017-06-04T04:10:01.342Z,18.30
2017-06-04T04:12:31.115Z,18.10
2017-06-04T04:15:01.535Z,17.50
2017-06-04T04:17:30.830Z,17.50
2017-06-04T04:20:00.420Z,17.40
2017-06-04T04:22:29.867Z,17.20
2017-06-04T04:24:59.493Z,17.20
2017-06-04T04:27:28.916Z,17.10
2017-06-04T04:29:58.096Z,17.10
2017-06-04T04:32:27.704Z,16.90
2017-06-04T04:34:57.175Z,16.70
2017-06-04T04:37:26.633Z,16.70
2017-06-04T04:39:56.254Z,16.60
2017-06-04T04:42:25.679Z,16.60
2017-06-04T04:44:55.342Z,16.50
2017-06-04T04:47:25.698Z,16.40
2017-06-04T04:49:54.834Z,16.40
2017-06-04T04:52:24.481Z,16.50
2017-06-04T04:54:54.058Z,16.50
2017-06-04T04:57:23.514Z,16.50
2017-06-04T04:59:52.834Z,16.40
2017-06-04T05:02:22.327Z,16.40
2017-06-04T05:04:51.713Z,16.40
2017-06-04T05:07:22.335Z,16.50
2017-06-04T05:09:51.747Z,16.30
2017-06-04T05:12:21.177Z,16.30
2017-06-04T05:14:50.691Z,16.20
2017-06-04T05:17:20.671Z,16.20
2017-06-04T05:19:50.074Z,16.20
2017-06-04T05:22:25.432Z,16.20
2017-06-04T05:24:54.783Z,16.10
2017-06-04T05:27:30.041Z,16.20
2017-06-04T05:29:59.596Z,16.00
2017-06-04T05:32:29.165Z,16.00
2017-06-04T05:34:58.412Z,15.90
2017-06-04T05:37:27.738Z,15.90
2017-06-04T05:39:57.213Z,15.90
2017-06-04T05:42:27.781Z,15.90
2017-06-04T05:44:57.086Z,15.90
2017-06-04T05:47:26.654Z,15.90
2017-06-04T05:49:56.234Z,15.80
2017-06-04T05:52:25.398Z,15.70
2017-06-04T05:54:54.535Z,15.60
2017-06-04T05:57:23.904Z,15.60
2017-06-04T05:59:53.278Z,15.60
2017-06-04T06:02:23.028Z,15.50
2017-06-04T06:04:51.896Z,15.40
2017-06-04T06:07:21.448Z,15.40
2017-06-04T06:09:51.948Z,15.30
2017-06-04T06:12:21.282Z,15.20
2017-06-04T06:14:50.761Z,15.20
2017-06-04T06:17:20.221Z,15.10
2017-06-04T06:19:49.912Z,15.00
2017-06-04T06:22:19.236Z,14.90
2017-06-04T06:24:48.678Z,15.00
2017-06-04T06:27:18.131Z,15.00
2017-06-04T06:29:47.712Z,14.90
2017-06-04T06:32:17.275Z,14.80
2017-06-04T06:34:46.729Z,14.70
2017-06-04T06:37:16.868Z,14.60
2017-06-04T06:39:46.410Z,14.60
2017-06-04T06:42:15.737Z,14.70
2017-06-04T06:44:45.363Z,14.70
2017-06-04T06:47:14.747Z,14.70
2017-06-04T06:49:44.053Z,14.70
2017-06-04T06:52:12.936Z,14.60
2017-06-04T06:54:42.396Z,14.60
2017-06-04T06:57:11.794Z,14.70
2017-06-04T06:59:41.168Z,14.80
2017-06-04T07:02:10.441Z,14.50
2017-06-04T07:04:39.685Z,14.50
2017-06-04T07:07:09.252Z,14.30
2017-06-04T07:09:38.438Z,14.40
2017-06-04T07:12:09.319Z,14.30
2017-06-04T07:14:39.744Z,14.20
2017-06-04T07:17:09.238Z,14.10
2017-06-04T07:19:38.459Z,14.20
2017-06-04T07:22:07.789Z,14.20
2017-06-04T07:24:37.295Z,14.20
2017-06-04T07:27:06.924Z,14.10
2017-06-04T07:29:36.241Z,14.10
2017-06-04T07:32:05.449Z,14.00
2017-06-04T07:34:34.766Z,14.00
2017-06-04T07:37:04.502Z,13.90
2017-06-04T07:39:34.116Z,13.80
2017-06-04T07:42:03.415Z,13.70
2017-06-04T07:44:32.965Z,13.60
2017-06-04T07:47:02.232Z,13.60
2017-06-04T07:49:31.722Z,13.60
2017-06-04T07:52:01.176Z,13.60
2017-06-04T07:54:30.584Z,13.40
2017-06-04T07:56:59.928Z,13.50
2017-06-04T07:59:29.656Z,13.40
2017-06-04T08:01:59.286Z,13.30
2017-06-04T08:04:28.668Z,13.30
2017-06-04T08:06:58.079Z,13.30
2017-06-04T08:09:27.338Z,13.30
2017-06-04T08:11:56.779Z,13.30
2017-06-04T08:14:27.019Z,13.40
2017-06-04T08:16:56.512Z,13.30
2017-06-04T08:19:26.149Z,13.30
2017-06-04T08:21:55.509Z,13.40
2017-06-04T08:24:25.047Z,13.30
2017-06-04T08:26:54.638Z,13.20
2017-06-04T08:29:24.225Z,13.20
2017-06-04T08:31:53.759Z,13.20
2017-06-04T08:34:23.307Z,13.20
2017-06-04T08:36:52.274Z,13.20
2017-06-04T08:39:21.873Z,13.20
2017-06-04T08:41:51.396Z,13.20
2017-06-04T08:44:20.872Z,13.10
2017-06-04T08:46:50.691Z,13.10
2017-06-04T08:49:20.157Z,13.00
2017-06-04T08:51:49.665Z,13.00
2017-06-04T08:54:19.093Z,13.10
2017-06-04T08:56:48.605Z,13.00
2017-06-04T08:59:17.789Z,13.00
2017-06-04T09:01:47.468Z,13.00
2017-06-04T09:04:16.984Z,13.00
2017-06-04T09:06:46.557Z,13.00
2017-06-04T09:09:16.202Z,13.00
2017-06-04T09:11:45.867Z,13.00
2017-06-04T09:14:16.103Z,13.10
2017-06-04T09:16:46.552Z,13.10
2017-06-04T09:19:15.851Z,13.20
2017-06-04T09:21:45.387Z,13.20
2017-06-04T09:24:14.827Z,13.10
2017-06-04T09:26:44.510Z,13.10
2017-06-04T09:29:13.791Z,13.10
2017-06-04T09:31:43.125Z,13.10
2017-06-04T09:34:12.442Z,13.10
2017-06-04T09:36:41.804Z,13.10
2017-06-04T09:39:11.446Z,13.20
2017-06-04T09:41:40.913Z,13.10
2017-06-04T09:44:10.074Z,13.00
2017-06-04T09:46:39.340Z,13.00
2017-06-04T09:49:08.613Z,12.80
2017-06-04T09:51:38.167Z,12.80
2017-06-04T09:54:07.704Z,12.70
2017-06-04T09:56:37.213Z,12.70
2017-06-04T09:59:06.537Z,12.60
2017-06-04T10:01:35.838Z,12.60
2017-06-04T10:04:05.387Z,12.60
2017-06-04T10:06:35.071Z,12.50
2017-06-04T10:09:04.452Z,12.40
2017-06-04T10:11:33.528Z,12.40
2017-06-04T10:14:02.982Z,12.30
2017-06-04T10:16:32.380Z,12.30
2017-06-04T10:19:02.342Z,12.20
2017-06-04T10:21:32.134Z,12.20
2017-06-04T10:24:02.533Z,12.20
2017-06-04T10:26:32.003Z,12.30
2017-06-04T10:29:00.760Z,12.30
2017-06-04T10:31:30.321Z,12.20
2017-06-04T10:34:00.491Z,12.20
2017-06-04T10:36:30.867Z,12.30
2017-06-04T10:39:00.349Z,12.30
2017-06-04T10:41:29.795Z,12.30
2017-06-04T10:43:59.067Z,12.20
2017-06-04T10:46:28.449Z,12.30
2017-06-04T10:48:58.067Z,12.30
2017-06-04T10:51:27.602Z,12.40
2017-06-04T10:53:57.112Z,12.50
2017-06-04T10:56:26.481Z,12.40
2017-06-04T10:58:56.114Z,12.30
2017-06-04T11:01:25.557Z,12.30
2017-06-04T11:03:55.184Z,12.20
2017-06-04T11:06:24.670Z,12.30
2017-06-04T11:08:54.429Z,12.40
2017-06-04T11:11:23.584Z,12.30
2017-06-04T11:13:53.068Z,12.40
2017-06-04T11:16:22.207Z,12.40
2017-06-04T11:18:51.572Z,12.60
2017-06-04T11:21:22.960Z,12.40
2017-06-04T11:23:52.458Z,12.40
2017-06-04T11:26:21.996Z,12.30
2017-06-04T11:28:51.416Z,12.30
2017-06-04T11:31:20.904Z,12.30
2017-06-04T11:33:50.285Z,12.20
2017-06-04T11:36:19.886Z,12.20
2017-06-04T11:38:49.345Z,12.40
2017-06-04T11:41:18.824Z,12.20
2017-06-04T11:43:48.494Z,12.10
2017-06-04T11:46:17.942Z,12.10
2017-06-04T11:48:47.143Z,12.10
2017-06-04T11:51:16.781Z,12.10
2017-06-04T11:53:47.192Z,12.10
2017-06-04T11:56:16.433Z,12.00
2017-06-04T11:58:46.119Z,12.30
2017-06-04T12:01:15.643Z,12.00
2017-06-04T12:03:44.873Z,11.80
2017-06-04T12:06:14.082Z,12.00
2017-06-04T12:08:43.382Z,12.00
2017-06-04T12:11:12.637Z,12.00
2017-06-04T12:13:42.202Z,12.00
2017-06-04T12:16:11.590Z,11.90
2017-06-04T12:18:41.143Z,12.00
2017-06-04T12:21:10.798Z,11.90
2017-06-04T12:23:41.107Z,12.00
2017-06-04T12:26:10.648Z,12.00
2017-06-04T12:28:39.989Z,11.80
2017-06-04T12:31:09.504Z,12.00
2017-06-04T12:33:38.810Z,12.00
2017-06-04T12:36:08.511Z,12.10
2017-06-04T12:38:37.853Z,12.20
2017-06-04T12:41:07.038Z,12.10
2017-06-04T12:43:36.483Z,12.10
2017-06-04T12:46:05.901Z,12.30
2017-06-04T12:48:35.480Z,12.30
2017-06-04T12:51:05.306Z,12.20
2017-06-04T12:53:34.665Z,12.30
2017-06-04T12:56:04.080Z,12.30
2017-06-04T12:58:33.561Z,12.30
2017-06-04T13:01:02.959Z,12.20
2017-06-04T13:03:32.614Z,12.30
2017-06-04T13:06:01.995Z,12.40
2017-06-04T13:08:31.166Z,12.70
2017-06-04T13:11:00.353Z,12.40
2017-06-04T13:13:30.181Z,12.50
2017-06-04T13:15:59.618Z,12.40
2017-06-04T13:18:29.026Z,12.50
2017-06-04T13:20:58.523Z,12.50
2017-06-04T13:23:27.964Z,12.40
2017-06-04T13:25:58.887Z,12.50
2017-06-04T13:28:28.179Z,12.50
2017-06-04T13:30:57.622Z,12.60
2017-06-04T13:33:26.990Z,12.60
2017-06-04T13:35:56.313Z,12.60
2017-06-04T13:38:26.404Z,12.70
2017-06-04T13:40:56.303Z,12.60
2017-06-04T13:43:25.585Z,12.60
2017-06-04T13:45:55.167Z,12.70
2017-06-04T13:48:24.551Z,12.60
2017-06-04T13:50:53.931Z,12.70
2017-06-04T13:53:23.362Z,12.80
2017-06-04T13:55:52.823Z,12.90
2017-06-04T13:58:22.382Z,13.00
2017-06-04T14:00:51.671Z,12.90
2017-06-04T14:03:21.235Z,12.70
2017-06-04T14:05:50.520Z,13.20
2017-06-04T14:08:19.861Z,13.00
2017-06-04T14:10:49.074Z,13.10
2017-06-04T14:13:18.444Z,13.00
2017-06-04T14:15:47.798Z,13.00
2017-06-04T14:18:17.409Z,12.80
2017-06-04T14:20:46.852Z,13.20
2017-06-04T14:23:16.238Z,13.30
2017-06-04T14:25:45.619Z,13.50
2017-06-04T14:28:16.595Z,13.60
2017-06-04T14:30:45.968Z,13.60
2017-06-04T14:33:15.666Z,13.90
2017-06-04T14:35:45.176Z,13.90
2017-06-04T14:38:14.455Z,14.10
2017-06-04T14:40:43.718Z,14.10
2017-06-04T14:43:13.232Z,14.30
2017-06-04T14:45:42.797Z,14.30
2017-06-04T14:48:12.452Z,14.50
2017-06-04T14:50:41.768Z,14.60
2017-06-04T14:53:11.243Z,14.90
2017-06-04T14:55:40.855Z,15.20
2017-06-04T14:58:10.154Z,15.40
2017-06-04T15:00:39.620Z,15.80
2017-06-04T15:03:08.913Z,16.00
2017-06-04T15:05:39.265Z,16.50
2017-06-04T15:08:08.774Z,16.50
2017-06-04T15:10:38.292Z,16.70
2017-06-04T15:13:08.067Z,16.80
2017-06-04T15:15:37.542Z,17.20
2017-06-04T15:18:06.611Z,17.00
2017-06-04T15:20:36.207Z,17.80
2017-06-04T15:23:05.603Z,18.70
2017-06-04T15:25:35.006Z,19.20
2017-06-04T15:28:04.338Z,19.10
2017-06-04T15:30:35.349Z,18.50
2017-06-04T15:33:04.742Z,17.90
2017-06-04T15:35:34.059Z,17.00
2017-06-04T15:38:03.320Z,16.80
2017-06-04T15:40:32.803Z,16.60
2017-06-04T15:43:02.231Z,16.40
2017-06-04T15:45:31.904Z,16.60
2017-06-04T15:48:01.282Z,16.90
2017-06-04T15:50:30.735Z,17.00
2017-06-04T15:53:00.064Z,17.20
2017-06-04T15:55:29.771Z,17.30
2017-06-04T15:57:58.939Z,17.70
2017-06-04T16:00:28.167Z,18.20
2017-06-04T16:02:57.649Z,18.60
2017-06-04T16:05:28.024Z,20.20
2017-06-04T16:07:57.459Z,20.20
2017-06-04T16:10:26.838Z,21.70
2017-06-04T16:12:56.225Z,22.50
2017-06-04T16:15:25.868Z,22.90
2017-06-04T16:17:55.314Z,23.20
2017-06-04T16:20:24.539Z,22.70
2017-06-04T16:22:54.278Z,22.90
2017-06-04T16:25:23.644Z,22.40
2017-06-04T16:27:53.209Z,21.60
2017-06-04T16:30:22.752Z,21.30
2017-06-04T16:32:53.109Z,20.90
2017-06-04T16:35:22.601Z,20.80
2017-06-04T16:37:51.957Z,20.90
2017-06-04T16:40:21.434Z,21.60
2017-06-04T16:42:51.636Z,22.70
2017-06-04T16:45:21.193Z,22.70
2017-06-04T16:47:50.554Z,22.50
2017-06-04T16:50:19.759Z,23.00
2017-06-04T16:52:49.010Z,23.60
2017-06-04T16:55:18.661Z,23.50
2017-06-04T16:57:47.948Z,23.90
2017-06-04T17:00:17.451Z,23.90
2017-06-04T17:02:46.636Z,23.60
2017-06-04T17:05:16.200Z,22.70
2017-06-04T17:07:45.705Z,22.80
2017-06-04T17:10:15.343Z,22.90
2017-06-04T17:12:45.212Z,22.10
2017-06-04T17:15:14.703Z,21.80
2017-06-04T17:17:44.310Z,20.70
2017-06-04T17:20:13.975Z,19.60
2017-06-04T17:22:43.149Z,19.00
2017-06-04T17:25:12.583Z,18.50
2017-06-04T17:27:42.308Z,18.40
2017-06-04T17:30:11.947Z,18.80
2017-06-04T17:32:40.649Z,18.60
2017-06-04T17:35:10.920Z,18.40
2017-06-04T17:37:40.517Z,18.30
2017-06-04T17:40:10.068Z,18.20
2017-06-04T17:42:39.187Z,18.30
2017-06-04T17:45:09.280Z,17.80
2017-06-04T17:47:38.581Z,17.70
2017-06-04T17:50:07.915Z,17.60
2017-06-04T17:52:37.526Z,17.40
2017-06-04T17:55:06.993Z,17.50
2017-06-04T17:57:36.522Z,17.70
2017-06-04T18:00:05.897Z,18.00
2017-06-04T18:02:35.257Z,18.10
2017-06-04T18:05:04.642Z,18.40
2017-06-04T18:07:34.015Z,19.00
2017-06-04T18:10:03.621Z,19.50
2017-06-04T18:12:33.256Z,19.80
2017-06-04T18:15:03.456Z,19.90
2017-06-04T18:17:33.174Z,19.90
2017-06-04T18:20:02.582Z,20.30
2017-06-04T18:22:32.315Z,20.30
2017-06-04T18:25:01.933Z,20.80
2017-06-04T18:27:31.371Z,21.30
2017-06-04T18:30:00.866Z,21.20
2017-06-04T18:32:29.543Z,21.90
2017-06-04T18:34:58.286Z,22.10
2017-06-04T18:37:27.695Z,23.20
2017-06-04T18:39:56.522Z,23.90
2017-06-04T18:42:25.864Z,23.80
2017-06-04T18:44:55.125Z,22.90
2017-06-04T18:47:24.447Z,22.60
2017-06-04T18:49:53.912Z,22.50
2017-06-04T18:52:24.289Z,21.90
2017-06-04T18:54:53.813Z,21.10
2017-06-04T18:57:23.412Z,21.50
2017-06-04T18:59:52.835Z,21.50
2017-06-04T19:02:22.318Z,21.20
2017-06-04T19:04:52.583Z,21.80
2017-06-04T19:07:22.129Z,21.80
2017-06-04T19:09:51.724Z,21.80
2017-06-04T19:12:21.370Z,22.10
2017-06-04T19:14:50.856Z,23.10
2017-06-04T19:17:20.366Z,23.30
2017-06-04T19:19:49.902Z,24.10
2017-06-04T19:22:20.036Z,23.40
2017-06-04T19:24:49.503Z,23.40
2017-06-04T19:27:29.119Z,23.10
2017-06-04T19:29:58.778Z,23.20
2017-06-04T19:32:29.141Z,23.20
2017-06-04T19:34:58.617Z,23.20
2017-06-04T19:37:29.386Z,23.40
2017-06-04T19:39:58.807Z,23.40
2017-06-04T19:42:28.988Z,22.70
2017-06-04T19:44:58.457Z,22.50
2017-06-04T19:47:28.016Z,22.70
2017-06-04T19:49:57.156Z,22.40
2017-06-04T19:52:26.614Z,22.20
2017-06-04T19:54:56.137Z,22.20
2017-06-04T19:57:25.691Z,22.40
2017-06-04T19:59:56.196Z,21.60
2017-06-04T20:02:25.888Z,21.50
2017-06-04T20:04:55.184Z,21.40
2017-06-04T20:07:24.647Z,21.60
2017-06-04T20:09:54.265Z,22.10
2017-06-04T20:12:23.282Z,22.20
2017-06-04T20:14:52.688Z,22.10
2017-06-04T20:17:22.956Z,21.90
2017-06-04T20:19:52.280Z,21.90
2017-06-04T20:22:21.779Z,21.80
2017-06-04T20:24:50.500Z,21.90
2017-06-04T20:27:19.542Z,21.90
2017-06-04T20:29:49.076Z,22.00
2017-06-04T20:32:17.771Z,21.80
2017-06-04T20:34:46.980Z,21.70
2017-06-04T20:37:16.599Z,21.30
2017-06-04T20:39:46.850Z,21.40
2017-06-04T20:42:15.894Z,21.20
2017-06-04T20:44:45.277Z,21.10
2017-06-04T20:47:14.891Z,21.00
2017-06-04T20:49:44.016Z,20.20
2017-06-04T20:52:13.494Z,19.90
2017-06-04T20:54:42.920Z,20.00
2017-06-04T20:57:12.270Z,20.10
2017-06-04T20:59:41.804Z,20.10
2017-06-04T21:02:11.039Z,20.30
2017-06-04T21:04:40.100Z,20.20
2017-06-04T21:07:09.620Z,20.40
2017-06-04T21:09:39.034Z,20.50
2017-06-04T21:12:08.501Z,20.40
2017-06-04T21:14:39.083Z,19.80
2017-06-04T21:17:08.176Z,19.70
2017-06-04T21:19:37.752Z,19.60
2017-06-04T21:22:07.073Z,19.80
2017-06-04T21:24:36.672Z,19.50
2017-06-04T21:27:06.195Z,19.80
2017-06-04T21:29:35.716Z,19.80
2017-06-04T21:32:05.211Z,20.10
2017-06-04T21:34:34.483Z,19.90
2017-06-04T21:37:03.693Z,20.10
2017-06-04T21:39:33.147Z,20.40
2017-06-04T21:42:03.440Z,20.90
2017-06-04T21:44:32.629Z,20.70
2017-06-04T21:47:03.223Z,20.90
2017-06-04T21:49:32.705Z,20.60
2017-06-04T21:52:02.516Z,20.80
2017-06-04T21:54:31.707Z,20.90
2017-06-04T21:57:00.924Z,21.30
2017-06-04T21:59:30.539Z,21.20
2017-06-04T22:01:59.814Z,21.00
2017-06-04T22:04:29.128Z,20.60
2017-06-04T22:06:58.060Z,20.30
2017-06-04T22:09:27.326Z,20.50
2017-06-04T22:11:57.812Z,20.40
2017-06-04T22:14:27.650Z,20.50
2017-06-04T22:16:56.819Z,20.70
2017-06-04T22:19:26.933Z,20.60
2017-06-04T22:21:56.057Z,20.50
2017-06-04T22:24:25.162Z,20.60
2017-06-04T22:26:55.340Z,20.50
2017-06-04T22:29:24.715Z,20.50
2017-06-04T22:31:53.882Z,20.70
2017-06-04T22:34:23.282Z,20.60
2017-06-04T22:36:52.523Z,20.50
2017-06-04T22:39:21.797Z,20.50
2017-06-04T22:41:51.160Z,20.60
2017-06-04T22:44:21.080Z,20.30
2017-06-04T22:46:50.498Z,20.00
2017-06-04T22:49:19.699Z,19.90
2017-06-04T22:51:48.823Z,20.00
2017-06-04T22:54:18.479Z,20.00
2017-06-04T22:56:49.044Z,20.20
2017-06-04T22:59:18.289Z,20.20
2017-06-04T23:01:47.787Z,20.30
2017-06-04T23:04:16.995Z,20.20
2017-06-04T23:06:46.505Z,20.00
2017-06-04T23:09:15.653Z,19.90
2017-06-04T23:11:46.725Z,19.80
2017-06-04T23:14:17.462Z,19.80
2017-06-04T23:16:46.994Z,19.70
2017-06-04T23:19:16.202Z,19.70
2017-06-04T23:21:45.657Z,19.50
2017-06-04T23:24:15.237Z,19.70
2017-06-04T23:26:44.455Z,19.80
2017-06-04T23:29:14.974Z,19.40
2017-06-04T23:31:47.200Z,19.50
2017-06-04T23:34:16.513Z,19.50
2017-06-04T23:36:45.715Z,19.50
2017-06-04T23:39:14.961Z,19.60
2017-06-04T23:41:44.335Z,19.60
2017-06-04T23:44:13.492Z,19.60
2017-06-04T23:46:44.015Z,19.50
2017-06-04T23:49:13.694Z,19.70
2017-06-04T23:51:43.872Z,19.90
2017-06-04T23:54:13.469Z,19.80
2017-06-04T23:56:42.928Z,19.90
2017-06-04T23:59:12.320Z,19.80
